UNNTZMUB

Guest
Details From UNNT - Novosibirsk Tolmachevo
To ZMUB - Chinggis Khaan Intl
Flight Number -
Tags Generated
Created
Modified
Stats Distance 994 nm / 1,841 km
Max Altitude 0 ft / 0 m
Waypoints 4
Social Downloads 1
Likes 0
Share VATSIM

Download

Looking for another format? Having issues loading an existing format? Contact us
Advertisement - Login to hide

Notes

Generated

Route

UNNT LOGRU B ZMUB

ID Type Via Altitude Latitude Longitude Leg Dist Tot Dist Heading (true) Name
O UNNT APT - 0 ft / 0 m 55.01130˚ 82.62816˚ - 0 nm - -
LOGRU FIX - 0 ft / 0 m 53.80000˚ 88.85000˚ 229 nm 229 nm 106° / 111° -
B NDB - 0 ft / 0 m 47.85703˚ 106.74782˚ 764 nm 993 nm 111° / 124° ULAANBAATAR NDB
O ZMUB APT - 0 ft / 0 m 47.84978˚ 106.75170˚ 0 nm 993 nm 160° / 160° -

Altitude Profile

Advertisement - Login to hide

Weather


0- 5 10 15 20 25 30 35+ Temperature / ° C

Clouds and Precipitation
Forecast for 2017-12-13 06:00 UTC. Updated 30 minutes ago

Ground ~20,000 ft ~40,000 ft Winds

UNNT

Details ICAO UNNT (OVB)
Name Novosibirsk Tolmachevo
Region Russia
Timezone Asia/Novosibirsk (UTC+7.0)
Stats Elevation 365 ft / 111 m (AMSL)
Location 55.013017° 82.651065°
Runways 2
Magnetic Variation 8.864° E

METAR

UNNT 130330Z 20002MPS 4900 -SN OVC008 M13/M15 Q1041 R25/490150 R34/490238 NOSIG RMK QFE770/1027

Decode

TAF

TAF UNNT 130200Z 1303/1403 24003G08MPS 9999 -SN BKN007 TEMPO 1303/1306 0800 FZFG BKN003 BECMG 1306/1307 BKN011 TEMPO 1313/1403 3100 BR FU BKN005

Decode

Departure Runways

ID Width Length Bearing (true) Bearing (mag) Surface Threshold Offset Overrun Length
07 190 ft / 58 m 11,817 ft / 3,602 m 81.00° 72.14° Asphalt 0 ft / 0 m 250 ft / 76 m
07L 304 ft / 93 m 9,877 ft / 3,011 m 81.01° 72.15° Grass 0 ft / 0 m 0 ft / 0 m
25 190 ft / 58 m 11,817 ft / 3,602 m 261.04° 252.18° Asphalt 0 ft / 0 m 225 ft / 69 m
25R 304 ft / 93 m 9,877 ft / 3,011 m 261.05° 252.19° Grass 0 ft / 0 m 0 ft / 0 m

ZMUB

Details ICAO ZMUB (ULN)
Name CHINGGIS KHAAN INTL
Region Mongolia
Timezone Asia/Ulaanbaatar (UTC+8.0)
Stats Elevation 4,364 ft / 1,330 m (AMSL)
Location 47.842620° 106.762906°
Runways 2
Magnetic Variation 4.602° W

METAR

ZMUB 130330Z VRB01MPS 8000NW NSC M20/M24 Q1022 NOSIG RMK QFE659.0 66 NW MO

Decode

TAF

Not found

Destination Runways

ID Width Length Bearing (true) Bearing (mag) Surface Threshold Offset Overrun Length
14 197 ft / 60 m 10,158 ft / 3,096 m 138.21° 142.81° Asphalt 0 ft / 0 m 148 ft / 45 m
15 131 ft / 40 m 6,239 ft / 1,902 m 146.60° 151.20° Dirt 0 ft / 0 m 492 ft / 150 m
32 197 ft / 60 m 10,158 ft / 3,096 m 318.23° 322.83° Asphalt 0 ft / 0 m 0 ft / 0 m
33 131 ft / 40 m 6,239 ft / 1,902 m 326.61° 331.21° Dirt 0 ft / 0 m 0 ft / 0 m

Approach Navaids

Runway Type Ident Frequency Range Bearing (true) Bearing (mag) Slope Elevation
14 Localiser IDA 110.30 MHz 50 nm / 93 km 138.45° 143.05° - 4,364 ft / 1,330 m (AMSL)
14 Glidescope IDA 110.30 MHz 50 nm / 93 km 142.00° 146.60° 2.70° 4,147 ft / 1,264 m (AMSL)

Popular Alternatives